Impacts METAR Board
IDs:

KSFO - San Francisco Intl, CA, US

Updated at: 2000 UTC 15 Jun 2019
Potential Impact None Slight Moderate High
Time 15/08Z 15/09Z 15/10Z 15/11Z 15/12Z 15/13Z 15/14Z 15/15Z 15/16Z 15/17Z 15/18Z 15/19Z 15/20Z
Temp56 56 55 55 55 54 55 55 56 55 58 58 61
Dewpt50 50 50 50 50 50 50 50 50 50 50 50 50
Altim29.97 29.97 29.96 29.95 29.96 29.97 29.97 29.98 29.99 30.00 30.00 30.00 30.00
VIS10 10 10 10 10 10 9 9 9 9 9 10 10
CIG10 14 13 13 13 9 9 10 10 11 12 16 16
CoverBKNOVCOVCOVCOVCOVCOVCOVCBKNOVCOVCBKNBKN
FltCatMVFRMVFRMVFRMVFRMVFRIFRIFRMVFRMVFRMVFRMVFRMVFRMVFR
WX--------------------------
WDir250240230260240260250230230230250250270
WSpd9 11 12 12 10 8 7 7 9 11 14 12 11
WGst-- -- -- -- -- -- -- -- -- -- -- -- --
Raw hourly METARs
KSFO 150756Z 25009KT 10SM FEW007 BKN010 13/10 A2997 RMK AO2 SLP149 T01330100 402000128
KSFO 150856Z 24011KT 10SM FEW007 SCT009 OVC014 13/10 A2997 RMK AO2 SLP148 T01330100 56003
KSFO 150956Z 23012KT 10SM FEW006 SCT008 OVC013 13/10 A2996 RMK AO2 SLP145 T01280100
KSFO 151056Z 26012KT 10SM FEW006 SCT008 OVC013 13/10 A2995 RMK AO2 SLP143 T01280100
KSFO 151156Z 24010KT 10SM FEW006 SCT008 OVC013 13/10 A2996 RMK AO2 SLP144 T01280100 10133 20128 55004
KSFO 151256Z 26008KT 10SM FEW007 OVC009 12/10 A2997 RMK AO2 SLP147 T01220100
KSFO 151356Z 25007KT 9SM FEW007 BKN009 OVC012 13/10 A2997 RMK AO2 SLP148 T01280100
KSFO 151456Z 23007KT 9SM FEW006 BKN010 OVC012 13/10 A2998 RMK AO2 SLP152 T01280100 53008
KSFO 151556Z 23009KT 9SM FEW006 BKN010 BKN012 13/10 A2999 RMK AO2 SLP154 T01330100
KSFO 151656Z 23011KT 9SM FEW007 BKN011 OVC013 13/10 A3000 RMK AO2 SLP157 T01280100
KSFO 151756Z 25014KT 9SM FEW007 BKN012 OVC016 14/10 A3000 RMK AO2 SLP157 T01440100 10144 20122 51005
KSFO 151856Z 25012KT 10SM FEW008 BKN016 BKN020 14/10 A3000 RMK AO2 SLP159 T01440100
KSFO 151956Z 27011KT 10SM FEW008 BKN016 BKN022 16/10 A3000 RMK AO2 SLP158 T01610100



Page loaded:  20:52 UTC  |   01:52 PM Pacific  |   02:52 PM Mountain  |   03:52 PM Central  |   04:52 PM Eastern

 

ADVISORIES

FORECASTS

FORECASTS

OBSERVATIONS

USER TOOLS

ABOUT US